sensor_id;sensor_type;location;lat;lon;timestamp;pressure;altitude;pressure_sealevel;temperature;humidity
65546;BME280;52177;55.968;37.498;2023-12-20T00:00:17;97898.97;;;2.51;94.33
65546;BME280;52177;55.968;37.498;2023-12-20T00:00:47;97894.69;;;2.50;94.37
65546;BME280;52177;55.968;37.498;2023-12-20T00:01:18;97898.97;;;2.51;94.24
65546;BME280;52177;55.968;37.498;2023-12-20T00:01:48;97898.13;;;2.50;94.16
65546;BME280;52177;55.968;37.498;2023-12-20T00:02:19;97905.84;;;2.52;94.20
65546;BME280;52177;55.968;37.498;2023-12-20T00:02:49;97900.75;;;2.50;94.11
65546;BME280;52177;55.968;37.498;2023-12-20T00:03:20;97901.75;;;2.49;94.00
65546;BME280;52177;55.968;37.498;2023-12-20T00:03:50;97900.94;;;2.49;94.01
65546;BME280;52177;55.968;37.498;2023-12-20T00:04:20;97896.66;;;2.48;93.96
65546;BME280;52177;55.968;37.498;2023-12-20T00:04:51;97899.28;;;2.48;94.07
65546;BME280;52177;55.968;37.498;2023-12-20T00:05:21;97896.84;;;2.46;94.14
65546;BME280;52177;55.968;37.498;2023-12-20T00:05:51;97895.19;;;2.45;94.21
65546;BME280;52177;55.968;37.498;2023-12-20T00:06:22;97901.28;;;2.46;94.18
65546;BME280;52177;55.968;37.498;2023-12-20T00:06:52;97891.59;;;2.46;94.29
65546;BME280;52177;55.968;37.498;2023-12-20T00:07:22;97897.66;;;2.47;94.24
65546;BME280;52177;55.968;37.498;2023-12-20T00:07:53;97896.03;;;2.46;94.26
65546;BME280;52177;55.968;37.498;2023-12-20T00:08:23;97910.00;;;2.46;94.12
65546;BME280;52177;55.968;37.498;2023-12-20T00:08:53;97905.72;;;2.45;94.21
65546;BME280;52177;55.968;37.498;2023-12-20T00:09:24;97895.19;;;2.45;94.21
65546;BME280;52177;55.968;37.498;2023-12-20T00:09:54;97902.25;;;2.45;94.27
65546;BME280;52177;55.968;37.498;2023-12-20T00:10:24;97900.63;;;2.44;94.35
65546;BME280;52177;55.968;37.498;2023-12-20T00:10:55;97898.81;;;2.44;94.38
65546;BME280;52177;55.968;37.498;2023-12-20T00:11:25;97905.91;;;2.44;94.34
65546;BME280;52177;55.968;37.498;2023-12-20T00:11:55;97909.34;;;2.44;94.44
65546;BME280;52177;55.968;37.498;2023-12-20T00:12:26;97908.53;;;2.44;94.51
65546;BME280;52177;55.968;37.498;2023-12-20T00:12:56;97904.91;;;2.45;94.57
65546;BME280;52177;55.968;37.498;2023-12-20T00:13:26;97904.06;;;2.44;94.54
65546;BME280;52177;55.968;37.498;2023-12-20T00:13:57;97904.91;;;2.45;94.71
65546;BME280;52177;55.968;37.498;2023-12-20T00:14:27;97903.72;;;2.47;94.76
65546;BME280;52177;55.968;37.498;2023-12-20T00:14:58;97904.53;;;2.48;94.59
65546;BME280;52177;55.968;37.498;2023-12-20T00:15:28;97905.56;;;2.47;94.64
65546;BME280;52177;55.968;37.498;2023-12-20T00:15:58;97911.47;;;2.49;94.63
65546;BME280;52177;55.968;37.498;2023-12-20T00:16:29;97909.00;;;2.47;94.62
65546;BME280;52177;55.968;37.498;2023-12-20T00:16:59;97907.38;;;2.46;94.58
65546;BME280;52177;55.968;37.498;2023-12-20T00:17:29;97911.63;;;2.47;94.59
65546;BME280;52177;55.968;37.498;2023-12-20T00:18:00;97907.00;;;2.49;94.65
65546;BME280;52177;55.968;37.498;2023-12-20T00:18:31;97904.38;;;2.49;94.70
65546;BME280;52177;55.968;37.498;2023-12-20T00:19:01;97909.31;;;2.52;94.79
65546;BME280;52177;55.968;37.498;2023-12-20T00:19:31;97907.66;;;2.51;94.80
65546;BME280;52177;55.968;37.498;2023-12-20T00:20:02;97906.00;;;2.50;94.63
65546;BME280;52177;55.968;37.498;2023-12-20T00:20:32;97913.75;;;2.52;94.63
65546;BME280;52177;55.968;37.498;2023-12-20T00:21:03;97912.78;;;2.53;94.63
65546;BME280;52177;55.968;37.498;2023-12-20T00:21:33;97909.31;;;2.52;94.58
65546;BME280;52177;55.968;37.498;2023-12-20T00:22:03;97913.75;;;2.52;94.45
65546;BME280;52177;55.968;37.498;2023-12-20T00:22:34;97913.75;;;2.52;94.46
65546;BME280;52177;55.968;37.498;2023-12-20T00:23:04;97916.38;;;2.52;94.56
65546;BME280;52177;55.968;37.498;2023-12-20T00:23:35;97919.81;;;2.52;94.42
65546;BME280;52177;55.968;37.498;2023-12-20T00:24:05;97919.66;;;2.54;94.43
65546;BME280;52177;55.968;37.498;2023-12-20T00:24:35;97918.19;;;2.51;94.42
65546;BME280;52177;55.968;37.498;2023-12-20T00:25:06;97918.84;;;2.53;94.57
65546;BME280;52177;55.968;37.498;2023-12-20T00:25:37;97916.22;;;2.53;94.51
65546;BME280;52177;55.968;37.498;2023-12-20T00:26:07;97917.84;;;2.54;94.60
65546;BME280;52177;55.968;37.498;2023-12-20T00:26:38;97920.47;;;2.54;94.55
65546;BME280;52177;55.968;37.498;2023-12-20T00:27:08;97922.13;;;2.56;94.54
65546;BME280;52177;55.968;37.498;2023-12-20T00:27:38;97920.47;;;2.54;94.54
65546;BME280;52177;55.968;37.498;2023-12-20T00:28:09;97917.69;;;2.56;94.57
65546;BME280;52177;55.968;37.498;2023-12-20T00:28:39;97913.41;;;2.55;94.53
65546;BME280;52177;55.968;37.498;2023-12-20T00:29:09;97914.25;;;2.56;94.62
65546;BME280;52177;55.968;37.498;2023-12-20T00:29:39;97912.59;;;2.54;94.49
65546;BME280;52177;55.968;37.498;2023-12-20T00:30:10;97910.75;;;2.55;94.49
65546;BME280;52177;55.968;37.498;2023-12-20T00:30:41;97916.88;;;2.56;94.58
65546;BME280;52177;55.968;37.498;2023-12-20T00:31:11;97916.88;;;2.56;94.51
65546;BME280;52177;55.968;37.498;2023-12-20T00:31:41;97923.09;;;2.54;94.38
65546;BME280;52177;55.968;37.498;2023-12-20T00:32:12;97918.03;;;2.53;94.38
65546;BME280;52177;55.968;37.498;2023-12-20T00:32:42;97922.28;;;2.54;94.37
65546;BME280;52177;55.968;37.498;2023-12-20T00:33:18;97930.19;;;2.54;94.36
65546;BME280;52177;55.968;37.498;2023-12-20T00:33:49;97921.47;;;2.53;94.38
65546;BME280;52177;55.968;37.498;2023-12-20T00:34:19;97924.09;;;2.53;94.37
65546;BME280;52177;55.968;37.498;2023-12-20T00:34:49;97924.09;;;2.53;94.40
65546;BME280;52177;55.968;37.498;2023-12-20T00:35:20;97920.47;;;2.54;94.51
65546;BME280;52177;55.968;37.498;2023-12-20T00:35:50;97928.38;;;2.54;94.43
65546;BME280;52177;55.968;37.498;2023-12-20T00:36:21;97925.72;;;2.54;94.47
65546;BME280;52177;55.968;37.498;2023-12-20T00:36:51;97927.41;;;2.56;94.48
65546;BME280;52177;55.968;37.498;2023-12-20T00:37:21;97924.75;;;2.56;94.42
65546;BME280;52177;55.968;37.498;2023-12-20T00:37:52;97927.03;;;2.59;94.46
65546;BME280;52177;55.968;37.498;2023-12-20T00:38:22;97932.16;;;2.60;94.51
65546;BME280;52177;55.968;37.498;2023-12-20T00:38:52;97927.19;;;2.57;94.40
65546;BME280;52177;55.968;37.498;2023-12-20T00:39:23;97922.94;;;2.56;94.38
65546;BME280;52177;55.968;37.498;2023-12-20T00:39:54;97916.69;;;2.57;94.37
65546;BME280;52177;55.968;37.498;2023-12-20T00:40:24;97921.78;;;2.59;94.49
65546;BME280;52177;55.968;37.498;2023-12-20T00:40:55;97920.78;;;2.60;94.33
65546;BME280;52177;55.968;37.498;2023-12-20T00:41:25;97926.03;;;2.60;94.32
65546;BME280;52177;55.968;37.498;2023-12-20T00:41:55;97926.88;;;2.60;94.26
65546;BME280;52177;55.968;37.498;2023-12-20T00:42:26;97920.47;;;2.63;94.37
65546;BME280;52177;55.968;37.498;2023-12-20T00:42:56;97918.00;;;2.61;94.29
65546;BME280;52177;55.968;37.498;2023-12-20T00:43:26;97915.34;;;2.61;94.24
65546;BME280;52177;55.968;37.498;2023-12-20T00:43:57;97917.03;;;2.62;94.11
65546;BME280;52177;55.968;37.498;2023-12-20T00:44:27;97927.69;;;2.61;94.14
65546;BME280;52177;55.968;37.498;2023-12-20T00:44:58;97920.63;;;2.61;94.10
65546;BME280;52177;55.968;37.498;2023-12-20T00:45:29;97924.06;;;2.62;94.04
65546;BME280;52177;55.968;37.498;2023-12-20T00:45:59;97918.81;;;2.62;94.06
65546;BME280;52177;55.968;37.498;2023-12-20T00:46:30;97919.66;;;2.62;93.99
65546;BME280;52177;55.968;37.498;2023-12-20T00:47:00;97923.91;;;2.63;93.94
65546;BME280;52177;55.968;37.498;2023-12-20T00:47:31;97926.38;;;2.65;93.93
65546;BME280;52177;55.968;37.498;2023-12-20T00:48:01;97924.38;;;2.67;93.83
65546;BME280;52177;55.968;37.498;2023-12-20T00:48:32;97915.84;;;2.65;93.87
65546;BME280;52177;55.968;37.498;2023-12-20T00:49:02;97920.28;;;2.64;93.61
65546;BME280;52177;55.968;37.498;2023-12-20T00:49:32;97924.91;;;2.62;93.50
65546;BME280;52177;55.968;37.498;2023-12-20T00:50:03;97926.69;;;2.62;93.42
65546;BME280;52177;55.968;37.498;2023-12-20T00:50:34;97918.16;;;2.60;93.33
65546;BME280;52177;55.968;37.498;2023-12-20T00:51:04;97924.06;;;2.62;93.34
65546;BME280;52177;55.968;37.498;2023-12-20T00:51:34;97921.63;;;2.60;93.21
65546;BME280;52177;55.968;37.498;2023-12-20T00:52:05;97917.34;;;2.59;93.18
65546;BME280;52177;55.968;37.498;2023-12-20T00:52:35;97918.50;;;2.57;93.08
65546;BME280;52177;55.968;37.498;2023-12-20T00:53:06;97916.69;;;2.57;92.89
65546;BME280;52177;55.968;37.498;2023-12-20T00:53:36;97923.91;;;2.55;92.88
65546;BME280;52177;55.968;37.498;2023-12-20T00:54:07;97916.69;;;2.57;92.88
65546;BME280;52177;55.968;37.498;2023-12-20T00:54:37;97922.13;;;2.56;92.83
65546;BME280;52177;55.968;37.498;2023-12-20T00:55:07;97910.97;;;2.53;92.71
65546;BME280;52177;55.968;37.498;2023-12-20T00:55:38;97912.94;;;2.51;92.64
65546;BME280;52177;55.968;37.498;2023-12-20T00:56:08;97919.81;;;2.52;92.61
65546;BME280;52177;55.968;37.498;2023-12-20T00:56:38;97916.53;;;2.50;92.59
65546;BME280;52177;55.968;37.498;2023-12-20T00:57:09;97917.53;;;2.49;92.55
65546;BME280;52177;55.968;37.498;2023-12-20T00:57:39;97920.97;;;2.50;92.66
65546;BME280;52177;55.968;37.498;2023-12-20T00:58:10;97913.91;;;2.50;92.60
65546;BME280;52177;55.968;37.498;2023-12-20T00:58:40;97922.78;;;2.49;92.64
65546;BME280;52177;55.968;37.498;2023-12-20T00:59:10;97920.00;;;2.51;92.66
65546;BME280;52177;55.968;37.498;2023-12-20T00:59:41;97925.94;;;2.53;92.71
65546;BME280;52177;55.968;37.498;2023-12-20T01:00:11;97914.56;;;2.52;92.65
65546;BME280;52177;55.968;37.498;2023-12-20T01:00:43;97919.66;;;2.54;92.59
65546;BME280;52177;55.968;37.498;2023-12-20T01:01:14;97918.50;;;2.57;92.66
65546;BME280;52177;55.968;37.498;2023-12-20T01:01:45;97914.41;;;2.54;92.56
65546;BME280;52177;55.968;37.498;2023-12-20T01:02:15;97909.94;;;2.54;92.53
65546;BME280;52177;55.968;37.498;2023-12-20T01:02:46;97915.41;;;2.53;92.39
65546;BME280;52177;55.968;37.498;2023-12-20T01:03:19;97903.06;;;2.53;92.51
65546;BME280;52177;55.968;37.498;2023-12-20T01:03:49;97909.94;;;2.54;92.41
65546;BME280;52177;55.968;37.498;2023-12-20T01:04:21;97911.59;;;2.56;92.41
65546;BME280;52177;55.968;37.498;2023-12-20T01:04:51;97908.31;;;2.53;92.41
65546;BME280;52177;55.968;37.498;2023-12-20T01:05:22;97905.03;;;2.51;92.29
65546;BME280;52177;55.968;37.498;2023-12-20T01:05:55;97902.09;;;2.46;92.18
65546;BME280;52177;55.968;37.498;2023-12-20T01:06:25;97909.19;;;2.46;92.08
65546;BME280;52177;55.968;37.498;2023-12-20T01:06:56;97913.78;;;2.44;92.25
65546;BME280;52177;55.968;37.498;2023-12-20T01:07:26;97909.19;;;2.46;92.27
65546;BME280;52177;55.968;37.498;2023-12-20T01:07:56;97908.34;;;2.45;92.40
65546;BME280;52177;55.968;37.498;2023-12-20T01:08:27;97911.16;;;2.44;92.35
65546;BME280;52177;55.968;37.498;2023-12-20T01:08:57;97909.50;;;2.43;92.28
65546;BME280;52177;55.968;37.498;2023-12-20T01:09:27;97904.44;;;2.41;92.27
65546;BME280;52177;55.968;37.498;2023-12-20T01:09:58;97902.13;;;2.38;92.24
65546;BME280;52177;55.968;37.498;2023-12-20T01:10:28;97900.28;;;2.39;92.20
65546;BME280;52177;55.968;37.498;2023-12-20T01:10:59;97900.47;;;2.37;92.28
65546;BME280;52177;55.968;37.498;2023-12-20T01:11:29;97893.56;;;2.36;92.20
65546;BME280;52177;55.968;37.498;2023-12-20T01:12:00;97895.38;;;2.36;92.40
65546;BME280;52177;55.968;37.498;2023-12-20T01:12:30;97894.56;;;2.35;92.45
65546;BME280;52177;55.968;37.498;2023-12-20T01:13:00;97894.56;;;2.35;92.53
65546;BME280;52177;55.968;37.498;2023-12-20T01:13:31;97894.56;;;2.35;92.58
65546;BME280;52177;55.968;37.498;2023-12-20T01:14:01;97896.53;;;2.33;92.59
65546;BME280;52177;55.968;37.498;2023-12-20T01:14:31;97902.81;;;2.32;92.47
65546;BME280;52177;55.968;37.498;2023-12-20T01:15:02;97895.72;;;2.32;92.55
65546;BME280;52177;55.968;37.498;2023-12-20T01:15:32;97902.81;;;2.32;92.54
65546;BME280;52177;55.968;37.498;2023-12-20T01:16:03;97896.53;;;2.33;92.61
65546;BME280;52177;55.968;37.498;2023-12-20T01:16:34;97899.34;;;2.31;92.63
65546;BME280;52177;55.968;37.498;2023-12-20T01:17:04;97902.97;;;2.30;92.57
65546;BME280;52177;55.968;37.498;2023-12-20T01:17:34;97903.78;;;2.31;92.55
65546;BME280;52177;55.968;37.498;2023-12-20T01:18:05;97902.97;;;2.30;92.59
65546;BME280;52177;55.968;37.498;2023-12-20T01:18:35;97901.16;;;2.31;92.64
65546;BME280;52177;55.968;37.498;2023-12-20T01:19:05;97904.13;;;2.28;92.58
65546;BME280;52177;55.968;37.498;2023-12-20T01:19:36;97902.31;;;2.28;92.66
65546;BME280;52177;55.968;37.498;2023-12-20T01:20:07;97902.97;;;2.30;92.76
65546;BME280;52177;55.968;37.498;2023-12-20T01:20:38;97910.84;;;2.30;92.67
65546;BME280;52177;55.968;37.498;2023-12-20T01:21:08;97898.72;;;2.29;92.66
65546;BME280;52177;55.968;37.498;2023-12-20T01:21:39;97906.75;;;2.28;92.67
65546;BME280;52177;55.968;37.498;2023-12-20T01:22:10;97897.22;;;2.27;92.51
65546;BME280;52177;55.968;37.498;2023-12-20T01:22:40;97892.13;;;2.25;92.55
65546;BME280;52177;55.968;37.498;2023-12-20T01:23:12;97893.94;;;2.25;92.59
65546;BME280;52177;55.968;37.498;2023-12-20T01:23:43;97890.47;;;2.24;92.59
65546;BME280;52177;55.968;37.498;2023-12-20T01:24:13;97892.44;;;2.22;92.49
65546;BME280;52177;55.968;37.498;2023-12-20T01:24:44;97890.81;;;2.21;92.57
65546;BME280;52177;55.968;37.498;2023-12-20T01:25:14;97887.19;;;2.22;92.58
65546;BME280;52177;55.968;37.498;2023-12-20T01:25:44;97887.19;;;2.22;92.69
65546;BME280;52177;55.968;37.498;2023-12-20T01:26:15;97885.56;;;2.21;92.73
65546;BME280;52177;55.968;37.498;2023-12-20T01:26:45;97877.84;;;2.20;92.49
65546;BME280;52177;55.968;37.498;2023-12-20T01:27:15;97873.44;;;2.20;92.76
65546;BME280;52177;55.968;37.498;2023-12-20T01:27:46;97874.41;;;2.19;92.69
65546;BME280;52177;55.968;37.498;2023-12-20T01:28:16;97877.84;;;2.20;92.75
65546;BME280;52177;55.968;37.498;2023-12-20T01:28:46;97873.59;;;2.19;92.90
65546;BME280;52177;55.968;37.498;2023-12-20T01:29:17;97880.66;;;2.18;92.75
65546;BME280;52177;55.968;37.498;2023-12-20T01:29:47;97882.44;;;2.18;92.74
65546;BME280;52177;55.968;37.498;2023-12-20T01:30:17;97884.44;;;2.16;92.66
65546;BME280;52177;55.968;37.498;2023-12-20T01:30:48;97888.69;;;2.17;92.76
65546;BME280;52177;55.968;37.498;2023-12-20T01:31:18;97875.56;;;2.17;92.87
65546;BME280;52177;55.968;37.498;2023-12-20T01:31:48;97885.25;;;2.16;92.80
65546;BME280;52177;55.968;37.498;2023-12-20T01:32:19;97889.69;;;2.16;92.76
65546;BME280;52177;55.968;37.498;2023-12-20T01:32:49;97888.03;;;2.15;92.73
65546;BME280;52177;55.968;37.498;2023-12-20T01:33:19;97892.31;;;2.16;92.85
65546;BME280;52177;55.968;37.498;2023-12-20T01:33:50;97893.28;;;2.15;93.11
65546;BME280;52177;55.968;37.498;2023-12-20T01:34:20;97887.06;;;2.16;92.89
65546;BME280;52177;55.968;37.498;2023-12-20T01:34:51;97890.31;;;2.18;92.83
65546;BME280;52177;55.968;37.498;2023-12-20T01:35:21;97894.63;;;2.19;92.88
65546;BME280;52177;55.968;37.498;2023-12-20T01:35:51;97879.00;;;2.17;92.90
65546;BME280;52177;55.968;37.498;2023-12-20T01:36:22;97882.63;;;2.16;92.82
65546;BME280;52177;55.968;37.498;2023-12-20T01:36:52;97886.22;;;2.15;92.91
65546;BME280;52177;55.968;37.498;2023-12-20T01:37:22;97885.41;;;2.15;92.64
65546;BME280;52177;55.968;37.498;2023-12-20T01:37:55;97885.41;;;2.15;92.86
65546;BME280;52177;55.968;37.498;2023-12-20T01:38:26;97881.16;;;2.14;92.95
65546;BME280;52177;55.968;37.498;2023-12-20T01:38:57;97881.16;;;2.14;92.89
65546;BME280;52177;55.968;37.498;2023-12-20T01:39:27;97887.22;;;2.14;92.94
65546;BME280;52177;55.968;37.498;2023-12-20T01:39:57;97885.41;;;2.15;92.93
65546;BME280;52177;55.968;37.498;2023-12-20T01:40:28;97886.56;;;2.12;92.94
65546;BME280;52177;55.968;37.498;2023-12-20T01:40:59;97884.09;;;2.10;92.90
65546;BME280;52177;55.968;37.498;2023-12-20T01:41:30;97885.75;;;2.11;92.95
65546;BME280;52177;55.968;37.498;2023-12-20T01:42:00;97885.09;;;2.09;92.96
65546;BME280;52177;55.968;37.498;2023-12-20T01:42:30;97879.84;;;2.09;93.03
65546;BME280;52177;55.968;37.498;2023-12-20T01:43:02;97882.47;;;2.09;93.01
65546;BME280;52177;55.968;37.498;2023-12-20T01:43:36;97880.66;;;2.10;92.92
65546;BME280;52177;55.968;37.498;2023-12-20T01:44:07;97874.59;;;2.09;93.09
65546;BME280;52177;55.968;37.498;2023-12-20T01:44:37;97876.41;;;2.09;93.22
65546;BME280;52177;55.968;37.498;2023-12-20T01:45:08;97878.22;;;2.08;93.16
65546;BME280;52177;55.968;37.498;2023-12-20T01:45:38;97875.41;;;2.10;93.02
65546;BME280;52177;55.968;37.498;2023-12-20T01:46:08;97882.47;;;2.09;93.07
65546;BME280;52177;55.968;37.498;2023-12-20T01:46:39;97880.84;;;2.08;93.21
65546;BME280;52177;55.968;37.498;2023-12-20T01:47:09;97871.31;;;2.07;93.21
65546;BME280;52177;55.968;37.498;2023-12-20T01:47:40;97873.94;;;2.07;93.20
65546;BME280;52177;55.968;37.498;2023-12-20T01:48:10;97874.94;;;2.06;93.27
65546;BME280;52177;55.968;37.498;2023-12-20T01:48:41;97872.31;;;2.06;93.22
65546;BME280;52177;55.968;37.498;2023-12-20T01:49:12;97872.31;;;2.06;93.22
65546;BME280;52177;55.968;37.498;2023-12-20T01:49:43;97868.00;;;2.05;93.29
65546;BME280;52177;55.968;37.498;2023-12-20T01:50:13;97871.66;;;2.04;93.31
65546;BME280;52177;55.968;37.498;2023-12-20T01:50:45;97870.66;;;2.05;93.40
65546;BME280;52177;55.968;37.498;2023-12-20T01:51:16;97871.66;;;2.04;93.45
65546;BME280;52177;55.968;37.498;2023-12-20T01:51:46;97867.22;;;2.05;93.42
65546;BME280;52177;55.968;37.498;2023-12-20T01:52:19;97868.00;;;2.05;93.55
65546;BME280;52177;55.968;37.498;2023-12-20T01:52:50;97867.22;;;2.05;93.60
65546;BME280;52177;55.968;37.498;2023-12-20T01:53:23;97866.38;;;2.04;93.65
65546;BME280;52177;55.968;37.498;2023-12-20T01:53:57;97879.19;;;2.07;93.68
65546;BME280;52177;55.968;37.498;2023-12-20T01:54:28;97877.22;;;2.09;93.66
65546;BME280;52177;55.968;37.498;2023-12-20T01:54:58;97873.59;;;2.10;93.77
65546;BME280;52177;55.968;37.498;2023-12-20T01:55:35;97865.38;;;2.14;93.83
65546;BME280;52177;55.968;37.498;2023-12-20T01:56:06;97860.78;;;2.16;93.87
65546;BME280;52177;55.968;37.498;2023-12-20T01:56:38;97871.31;;;2.16;93.85
65546;BME280;52177;55.968;37.498;2023-12-20T01:57:08;97862.41;;;2.17;93.82
65546;BME280;52177;55.968;37.498;2023-12-20T01:57:43;97865.03;;;2.17;93.76
65546;BME280;52177;55.968;37.498;2023-12-20T01:58:15;97854.53;;;2.17;93.81
65546;BME280;52177;55.968;37.498;2023-12-20T01:58:47;97859.63;;;2.18;93.94
65546;BME280;52177;55.968;37.498;2023-12-20T01:59:20;97858.63;;;2.19;93.82
65546;BME280;52177;55.968;37.498;2023-12-20T01:59:50;97862.06;;;2.20;93.84
65546;BME280;52177;55.968;37.498;2023-12-20T02:00:21;97859.44;;;2.20;93.79
65546;BME280;52177;55.968;37.498;2023-12-20T02:00:54;97863.53;;;2.22;93.77
65546;BME280;52177;55.968;37.498;2023-12-20T02:01:24;97863.53;;;2.22;93.80
65546;BME280;52177;55.968;37.498;2023-12-20T02:01:55;97861.75;;;2.23;93.82
65546;BME280;52177;55.968;37.498;2023-12-20T02:02:27;97854.69;;;2.23;93.77
65546;BME280;52177;55.968;37.498;2023-12-20T02:03:01;97862.06;;;2.28;93.84
65546;BME280;52177;55.968;37.498;2023-12-20T02:03:32;97862.88;;;2.28;93.64
65546;BME280;52177;55.968;37.498;2023-12-20T02:04:02;97854.16;;;2.28;93.68
65546;BME280;52177;55.968;37.498;2023-12-20T02:04:33;97859.44;;;2.28;93.61
65546;BME280;52177;55.968;37.498;2023-12-20T02:05:05;97854.97;;;2.28;93.70
65546;BME280;52177;55.968;37.498;2023-12-20T02:05:37;97849.56;;;2.30;93.59
65546;BME280;52177;55.968;37.498;2023-12-20T02:06:09;97847.75;;;2.30;93.50
65546;BME280;52177;55.968;37.498;2023-12-20T02:06:39;97848.56;;;2.31;93.49
65546;BME280;52177;55.968;37.498;2023-12-20T02:07:11;97841.50;;;2.31;93.43
65546;BME280;52177;55.968;37.498;2023-12-20T02:07:41;97844.13;;;2.31;93.55
65546;BME280;52177;55.968;37.498;2023-12-20T02:08:12;97844.31;;;2.30;93.38
65546;BME280;52177;55.968;37.498;2023-12-20T02:08:42;97851.19;;;2.31;93.49
65546;BME280;52177;55.968;37.498;2023-12-20T02:09:13;97852.00;;;2.31;93.52
65546;BME280;52177;55.968;37.498;2023-12-20T02:09:43;97851.03;;;2.32;93.51
65546;BME280;52177;55.968;37.498;2023-12-20T02:10:15;97852.66;;;2.33;93.50
65546;BME280;52177;55.968;37.498;2023-12-20T02:10:46;97847.59;;;2.32;93.48
65546;BME280;52177;55.968;37.498;2023-12-20T02:11:17;97844.31;;;2.30;93.68
65546;BME280;52177;55.968;37.498;2023-12-20T02:11:48;97839.06;;;2.30;93.61
65546;BME280;52177;55.968;37.498;2023-12-20T02:12:19;97844.97;;;2.32;93.62
65546;BME280;52177;55.968;37.498;2023-12-20T02:12:50;97837.88;;;2.32;93.60
65546;BME280;52177;55.968;37.498;2023-12-20T02:13:20;97850.22;;;2.32;93.55
65546;BME280;52177;55.968;37.498;2023-12-20T02:13:50;97852.84;;;2.32;93.63
65546;BME280;52177;55.968;37.498;2023-12-20T02:14:21;97845.78;;;2.32;93.65
65546;BME280;52177;55.968;37.498;2023-12-20T02:14:51;97847.25;;;2.35;93.67
65546;BME280;52177;55.968;37.498;2023-12-20T02:15:21;97854.13;;;2.36;93.76
65546;BME280;52177;55.968;37.498;2023-12-20T02:15:52;97841.97;;;2.35;93.67
65546;BME280;52177;55.968;37.498;2023-12-20T02:16:22;97851.50;;;2.36;93.62
65546;BME280;52177;55.968;37.498;2023-12-20T02:16:53;97854.13;;;2.36;93.70
65546;BME280;52177;55.968;37.498;2023-12-20T02:17:23;97843.59;;;2.36;93.73
65546;BME280;52177;55.968;37.498;2023-12-20T02:17:54;97849.88;;;2.35;93.76
65546;BME280;52177;55.968;37.498;2023-12-20T02:18:25;97840.16;;;2.36;93.75
65546;BME280;52177;55.968;37.498;2023-12-20T02:18:55;97841.97;;;2.35;93.66
65546;BME280;52177;55.968;37.498;2023-12-20T02:19:25;97841.16;;;2.35;93.72
65546;BME280;52177;55.968;37.498;2023-12-20T02:19:56;97839.34;;;2.35;93.65
65546;BME280;52177;55.968;37.498;2023-12-20T02:20:26;97835.06;;;2.34;93.61
65546;BME280;52177;55.968;37.498;2023-12-20T02:20:56;97843.97;;;2.33;93.71
65546;BME280;52177;55.968;37.498;2023-12-20T02:21:33;97842.34;;;2.32;93.62
65546;BME280;52177;55.968;37.498;2023-12-20T02:22:10;97841.69;;;2.30;93.53
65546;BME280;52177;55.968;37.498;2023-12-20T02:22:40;97847.09;;;2.28;93.58
65546;BME280;52177;55.968;37.498;2023-12-20T02:23:11;97843.66;;;2.28;93.60
65546;BME280;52177;55.968;37.498;2023-12-20T02:23:41;97834.94;;;2.27;93.50
65546;BME280;52177;55.968;37.498;2023-12-20T02:24:11;97843.81;;;2.26;93.61
65546;BME280;52177;55.968;37.498;2023-12-20T02:24:42;97845.63;;;2.26;93.55
65546;BME280;52177;55.968;37.498;2023-12-20T02:25:12;97848.41;;;2.24;93.60
65546;BME280;52177;55.968;37.498;2023-12-20T02:25:42;97838.91;;;2.23;93.55
65546;BME280;52177;55.968;37.498;2023-12-20T02:26:13;97834.47;;;2.24;93.52
65546;BME280;52177;55.968;37.498;2023-12-20T02:26:44;97842.34;;;2.24;93.54
65546;BME280;52177;55.968;37.498;2023-12-20T02:27:15;97838.09;;;2.23;93.54
65546;BME280;52177;55.968;37.498;2023-12-20T02:27:48;97842.50;;;2.22;93.55
65546;BME280;52177;55.968;37.498;2023-12-20T02:28:19;97842.50;;;2.22;93.63
65546;BME280;52177;55.968;37.498;2023-12-20T02:28:50;97846.94;;;2.22;93.56
65546;BME280;52177;55.968;37.498;2023-12-20T02:29:20;97855.50;;;2.24;93.63
65546;BME280;52177;55.968;37.498;2023-12-20T02:29:51;97848.75;;;2.21;93.74
65546;BME280;52177;55.968;37.498;2023-12-20T02:30:21;97850.56;;;2.21;93.82
65546;BME280;52177;55.968;37.498;2023-12-20T02:30:51;97846.94;;;2.22;93.82
65546;BME280;52177;55.968;37.498;2023-12-20T02:31:22;97841.88;;;2.20;93.85
65546;BME280;52177;55.968;37.498;2023-12-20T02:31:53;97842.84;;;2.19;93.87
65546;BME280;52177;55.968;37.498;2023-12-20T02:32:24;97847.94;;;2.21;93.97
65546;BME280;52177;55.968;37.498;2023-12-20T02:32:59;97847.28;;;2.19;93.97
65546;BME280;52177;55.968;37.498;2023-12-20T02:33:30;97846.47;;;2.18;94.00
65546;BME280;52177;55.968;37.498;2023-12-20T02:34:00;97850.72;;;2.19;93.97
65546;BME280;52177;55.968;37.498;2023-12-20T02:34:30;97847.28;;;2.19;94.04
65546;BME280;52177;55.968;37.498;2023-12-20T02:35:01;97849.75;;;2.20;93.96
65546;BME280;52177;55.968;37.498;2023-12-20T02:35:31;97850.72;;;2.19;94.11
65546;BME280;52177;55.968;37.498;2023-12-20T02:36:01;97848.91;;;2.20;94.05
65546;BME280;52177;55.968;37.498;2023-12-20T02:36:32;97853.22;;;2.21;93.99
65546;BME280;52177;55.968;37.498;2023-12-20T02:37:02;97848.91;;;2.20;93.99
65546;BME280;52177;55.968;37.498;2023-12-20T02:37:33;97846.13;;;2.21;94.18
65546;BME280;52177;55.968;37.498;2023-12-20T02:38:03;97843.50;;;2.21;94.12
65546;BME280;52177;55.968;37.498;2023-12-20T02:38:34;97842.50;;;2.22;94.13
65546;BME280;52177;55.968;37.498;2023-12-20T02:39:04;97846.78;;;2.23;94.20
65546;BME280;52177;55.968;37.498;2023-12-20T02:39:34;97847.59;;;2.24;94.25
65546;BME280;52177;55.968;37.498;2023-12-20T02:40:05;97837.91;;;2.24;94.23
65546;BME280;52177;55.968;37.498;2023-12-20T02:40:36;97844.63;;;2.27;94.22
65546;BME280;52177;55.968;37.498;2023-12-20T02:41:06;97843.81;;;2.26;94.17
65546;BME280;52177;55.968;37.498;2023-12-20T02:41:36;97843.81;;;2.26;94.19
65546;BME280;52177;55.968;37.498;2023-12-20T02:42:07;97844.47;;;2.28;94.08
65546;BME280;52177;55.968;37.498;2023-12-20T02:42:37;97841.69;;;2.30;94.02